Time;durP1;ratioP1;P1;durP2;ratioP2;P2;SDS_P1;SDS_P2;PMS_P1;PMS_P2;Temp;Humidity;BMP_temperature;BMP_pressure;BME280_temperature;BME280_humidity;BME280_pressure;Samples;Min_cycle;Max_cycle;Signal;HPM_P1;HPM_P2
2023/07/30 00:00:42;;;;;;;2.67;1.77;;;17.60;99.90;;;;;;4991442;28;20046;-83
2023/07/30 00:03:07;;;;;;;6.88;1.90;;;17.60;99.90;;;;;;4993277;28;20052;-82
2023/07/30 00:05:33;;;;;;;3.85;1.73;;;17.60;99.90;;;;;;4992151;28;20043;-82
2023/07/30 00:07:59;;;;;;;4.15;1.80;;;17.60;99.90;;;;;;4992593;28;20038;-83
2023/07/30 00:10:24;;;;;;;3.67;1.90;;;17.60;99.90;;;;;;4992876;28;20041;-82
2023/07/30 00:12:50;;;;;;;2.95;1.80;;;17.50;99.90;;;;;;4993381;28;20030;-82
2023/07/30 00:15:15;;;;;;;2.05;1.55;;;17.50;99.90;;;;;;4991065;28;20776;-82
2023/07/30 00:17:41;;;;;;;4.32;2.15;;;17.50;99.90;;;;;;4993418;28;20571;-82
2023/07/30 00:20:08;;;;;;;7.63;1.90;;;17.50;99.90;;;;;;4991306;28;20036;-81
2023/07/30 00:22:33;;;;;;;3.35;2.08;;;17.50;99.90;;;;;;4992059;28;20120;-82
2023/07/30 00:24:59;;;;;;;4.47;1.80;;;17.50;99.90;;;;;;4992302;28;20073;-82
2023/07/30 00:27:24;;;;;;;2.28;1.80;;;17.50;99.90;;;;;;4991634;28;20051;-82
2023/07/30 00:29:50;;;;;;;2.53;2.00;;;17.50;99.90;;;;;;4991923;28;20034;-82
2023/07/30 00:32:16;;;;;;;3.03;1.90;;;17.50;99.90;;;;;;4992992;28;20044;-82
2023/07/30 00:34:42;;;;;;;2.53;1.77;;;17.50;99.90;;;;;;4993817;28;20105;-82
2023/07/30 00:37:09;;;;;;;2.92;2.08;;;17.50;99.90;;;;;;4994866;28;20065;-82
2023/07/30 00:39:35;;;;;;;2.63;1.70;;;17.40;99.90;;;;;;4995176;28;20038;-82
2023/07/30 00:42:00;;;;;;;3.05;1.90;;;17.40;99.90;;;;;;4995726;28;20031;-82
2023/07/30 00:44:26;;;;;;;2.72;2.10;;;17.40;99.90;;;;;;4995881;28;20496;-82
2023/07/30 00:46:52;;;;;;;2.88;1.85;;;17.40;99.90;;;;;;4993354;28;20042;-82
2023/07/30 00:49:18;;;;;;;3.47;1.80;;;17.40;99.90;;;;;;4994772;28;20034;-82
2023/07/30 00:51:44;;;;;;;2.42;1.88;;;17.40;99.90;;;;;;4994250;28;20033;-82
2023/07/30 00:54:11;;;;;;;2.15;1.70;;;17.40;99.90;;;;;;4996815;28;20023;-82
2023/07/30 00:56:37;;;;;;;4.97;2.28;;;17.40;99.90;;;;;;4995077;28;20105;-82
2023/07/30 00:59:02;;;;;;;2.70;1.70;;;17.30;99.90;;;;;;4995667;28;21003;-82
2023/07/30 01:01:30;;;;;;;4.47;2.08;;;17.30;99.90;;;;;;4994671;28;20049;-83
2023/07/30 01:03:56;;;;;;;3.45;1.80;;;17.30;99.90;;;;;;4996156;28;20473;-82
2023/07/30 01:06:21;;;;;;;4.15;1.90;;;17.20;99.90;;;;;;4994350;28;20169;-82
2023/07/30 01:08:48;;;;;;;6.78;1.90;;;17.20;99.90;;;;;;4991435;28;20049;-82
2023/07/30 01:11:14;;;;;;;2.25;1.70;;;17.20;99.90;;;;;;4994828;28;20028;-82
2023/07/30 01:13:41;;;;;;;2.42;1.80;;;17.20;99.90;;;;;;4995394;28;20591;-82
2023/07/30 01:16:07;;;;;;;3.00;1.80;;;17.20;99.90;;;;;;4994915;28;20029;-83
2023/07/30 01:18:33;;;;;;;5.05;1.95;;;17.20;99.90;;;;;;4995355;28;20030;-84
2023/07/30 01:20:59;;;;;;;5.43;2.20;;;17.20;99.90;;;;;;4995504;28;20030;-82
2023/07/30 01:23:26;;;;;;;2.40;1.77;;;17.20;99.90;;;;;;4994900;28;20025;-82
2023/07/30 01:26:03;;;;;;;5.85;1.95;;;17.20;99.90;;;;;;4993060;28;20117;-82
2023/07/30 01:28:36;;;;;;;2.60;1.63;;;17.10;99.90;;;;;;4992930;28;20053;-82
2023/07/30 01:31:03;;;;;;;3.28;2.10;;;17.10;99.90;;;;;;4992987;28;20042;-82
2023/07/30 01:33:29;;;;;;;5.05;2.10;;;17.10;99.90;;;;;;4992888;28;20057;-82
2023/07/30 01:35:57;;;;;;;5.38;1.90;;;17.00;99.90;;;;;;4992652;28;20493;-82
2023/07/30 01:38:23;;;;;;;2.75;1.83;;;17.00;99.90;;;;;;4991759;28;20076;-83
2023/07/30 01:40:49;;;;;;;3.00;1.70;;;17.00;99.90;;;;;;4992202;28;20610;-82
2023/07/30 01:43:14;;;;;;;3.42;2.00;;;17.00;99.90;;;;;;4989491;28;20042;-82
2023/07/30 01:45:40;;;;;;;2.88;1.90;;;17.00;99.90;;;;;;4989304;28;20114;-82
2023/07/30 01:48:06;;;;;;;3.67;1.90;;;17.00;99.90;;;;;;4992291;28;20394;-82
2023/07/30 01:50:32;;;;;;;3.35;2.30;;;17.00;99.90;;;;;;4992748;28;20141;-82
2023/07/30 01:52:57;;;;;;;4.43;2.13;;;17.00;99.90;;;;;;4993414;28;20026;-82
2023/07/30 01:55:23;;;;;;;5.75;2.03;;;17.00;99.90;;;;;;4993213;28;20048;-83
2023/07/30 01:57:48;;;;;;;4.40;2.08;;;17.00;99.90;;;;;;4993845;28;20080;-82
2023/07/30 02:00:14;;;;;;;3.15;2.28;;;17.10;99.90;;;;;;4994331;28;21712;-82
2023/07/30 02:02:39;;;;;;;3.10;2.10;;;17.10;99.90;;;;;;4993816;28;20034;-82
2023/07/30 02:05:05;;;;;;;3.13;2.00;;;17.10;99.90;;;;;;4992991;28;20109;-82
2023/07/30 02:07:30;;;;;;;4.70;3.05;;;17.10;99.90;;;;;;4993931;28;20133;-82
2023/07/30 02:09:56;;;;;;;2.30;1.90;;;17.10;99.90;;;;;;4993602;28;20492;-82
2023/07/30 02:12:22;;;;;;;5.75;2.10;;;17.10;99.90;;;;;;4994081;28;20034;-82
2023/07/30 02:14:47;;;;;;;3.50;2.25;;;17.10;99.90;;;;;;4992223;28;20034;-82
2023/07/30 02:17:13;;;;;;;3.03;2.13;;;17.10;99.90;;;;;;4993657;28;20021;-83
2023/07/30 02:19:38;;;;;;;5.50;2.10;;;17.10;99.90;;;;;;4993474;28;20053;-82
2023/07/30 02:22:04;;;;;;;4.57;2.03;;;17.20;99.90;;;;;;4993188;28;20147;-82
2023/07/30 02:24:30;;;;;;;3.70;2.10;;;17.20;99.90;;;;;;4994065;28;20060;-82
2023/07/30 02:26:55;;;;;;;5.45;2.70;;;17.20;99.90;;;;;;4992266;28;20038;-82
2023/07/30 02:29:21;;;;;;;6.03;2.90;;;17.20;99.90;;;;;;4993522;28;20018;-82
2023/07/30 02:31:46;;;;;;;5.00;2.25;;;17.20;99.90;;;;;;4992872;28;20487;-82
2023/07/30 02:34:12;;;;;;;4.97;2.45;;;17.30;99.90;;;;;;4992481;28;20053;-82
2023/07/30 02:36:37;;;;;;;3.65;2.35;;;17.40;99.90;;;;;;4993188;28;20117;-82
2023/07/30 02:39:03;;;;;;;2.72;2.10;;;17.40;99.90;;;;;;4993018;28;20548;-82
2023/07/30 02:41:28;;;;;;;2.80;2.20;;;17.40;99.90;;;;;;4992921;28;20034;-82
2023/07/30 02:43:54;;;;;;;3.53;2.65;;;17.40;99.90;;;;;;4992947;28;21510;-82
2023/07/30 02:46:19;;;;;;;3.50;2.15;;;17.50;99.90;;;;;;4992767;28;20077;-82
2023/07/30 02:48:45;;;;;;;3.03;2.40;;;17.50;99.90;;;;;;4992999;28;20033;-82
2023/07/30 02:51:11;;;;;;;3.28;2.30;;;17.50;99.90;;;;;;4989859;28;20031;-82
2023/07/30 02:53:36;;;;;;;3.42;2.28;;;17.50;99.90;;;;;;4993420;28;20033;-83
2023/07/30 02:56:02;;;;;;;3.28;2.42;;;17.50;99.90;;;;;;4993483;28;20018;-83
2023/07/30 02:58:27;;;;;;;4.20;2.38;;;17.50;99.90;;;;;;4992671;28;20033;-82
2023/07/30 03:00:53;;;;;;;3.47;2.42;;;17.40;99.90;;;;;;4992792;28;20159;-83
2023/07/30 03:03:18;;;;;;;6.70;2.72;;;17.40;99.90;;;;;;4992907;28;20027;-83
2023/07/30 03:05:44;;;;;;;3.45;2.50;;;17.30;99.90;;;;;;4992385;28;20026;-82
2023/07/30 03:08:09;;;;;;;4.03;2.40;;;17.30;99.90;;;;;;4991945;28;20124;-82
2023/07/30 03:10:37;;;;;;;5.43;2.53;;;17.30;99.90;;;;;;4993478;28;20038;-83
2023/07/30 03:13:02;;;;;;;10.20;2.60;;;17.20;99.90;;;;;;4992204;28;20061;-83
2023/07/30 03:15:28;;;;;;;3.10;2.40;;;17.20;99.90;;;;;;4993607;28;20827;-83
2023/07/30 03:17:53;;;;;;;6.55;2.70;;;17.20;99.90;;;;;;4992556;28;20112;-84
2023/07/30 03:20:19;;;;;;;5.40;3.00;;;17.10;99.90;;;;;;4993319;28;20064;-83
2023/07/30 03:22:44;;;;;;;6.70;3.05;;;17.10;99.90;;;;;;4994686;28;20034;-83
2023/07/30 03:25:10;;;;;;;3.92;2.67;;;17.10;99.90;;;;;;4995409;28;20505;-83
2023/07/30 03:27:35;;;;;;;4.15;2.70;;;17.10;99.90;;;;;;4993775;28;20046;-83
2023/07/30 03:30:01;;;;;;;3.22;2.85;;;17.10;99.90;;;;;;4993477;28;20581;-83
2023/07/30 03:32:26;;;;;;;5.80;2.58;;;17.00;99.90;;;;;;4993244;28;20053;-83
2023/07/30 03:34:52;;;;;;;4.65;3.03;;;17.00;99.90;;;;;;4994353;28;20027;-82
2023/07/30 03:37:17;;;;;;;5.65;2.67;;;17.00;99.90;;;;;;4994200;28;20033;-83
2023/07/30 03:39:43;;;;;;;3.47;2.50;;;16.90;99.90;;;;;;4992263;28;20037;-83
2023/07/30 03:42:08;;;;;;;3.55;2.80;;;16.90;99.90;;;;;;4992770;28;20022;-83
2023/07/30 03:44:34;;;;;;;5.13;3.25;;;16.90;99.90;;;;;;4994055;28;20087;-83
2023/07/30 03:46:59;;;;;;;5.35;3.00;;;16.90;99.90;;;;;;4992261;28;20037;-83
2023/07/30 03:49:25;;;;;;;3.75;2.78;;;16.80;99.90;;;;;;4991707;28;20069;-83
2023/07/30 03:51:51;;;;;;;4.53;3.22;;;16.80;99.90;;;;;;4992668;28;20055;-82
2023/07/30 03:54:16;;;;;;;3.47;2.50;;;16.80;99.90;;;;;;4995971;28;20101;-83
2023/07/30 03:56:42;;;;;;;6.38;3.08;;;16.80;99.90;;;;;;4996679;28;20461;-83
2023/07/30 03:59:07;;;;;;;4.07;2.90;;;16.70;99.90;;;;;;4997196;28;20045;-82
2023/07/30 04:01:33;;;;;;;4.82;3.40;;;16.70;99.90;;;;;;4996265;28;20034;-83
2023/07/30 04:03:59;;;;;;;4.57;3.45;;;16.70;99.90;;;;;;4997620;28;20053;-83
2023/07/30 04:06:24;;;;;;;6.90;3.40;;;16.70;99.90;;;;;;4995575;28;20070;-82
2023/07/30 04:08:50;;;;;;;5.93;3.50;;;16.70;99.90;;;;;;4996429;28;20114;-82
2023/07/30 04:11:16;;;;;;;6.45;3.22;;;16.60;99.90;;;;;;4997560;28;20011;-83
2023/07/30 04:13:42;;;;;;;4.05;2.70;;;16.60;99.90;;;;;;4996383;28;20033;-83
2023/07/30 04:16:08;;;;;;;4.55;2.80;;;16.60;99.90;;;;;;4995454;28;20030;-81
2023/07/30 04:18:33;;;;;;;4.40;2.60;;;16.60;99.90;;;;;;4995920;28;20032;-83
2023/07/30 04:20:59;;;;;;;5.32;3.10;;;16.70;99.90;;;;;;4994567;28;20069;-81
2023/07/30 04:23:24;;;;;;;3.75;2.47;;;16.70;99.90;;;;;;4994885;28;20232;-81
2023/07/30 04:25:50;;;;;;;3.40;2.70;;;16.70;99.90;;;;;;4994071;28;20511;-81
2023/07/30 04:28:16;;;;;;;3.67;2.47;;;16.70;99.90;;;;;;4994615;28;20034;-81
2023/07/30 04:30:42;;;;;;;5.65;2.97;;;16.70;99.90;;;;;;4992793;28;20030;-81
2023/07/30 04:33:08;;;;;;;5.72;2.53;;;16.80;99.90;;;;;;4992870;28;20392;-81
2023/07/30 04:35:33;;;;;;;6.47;2.70;;;16.80;99.90;;;;;;4992237;28;20397;-81
2023/07/30 04:37:59;;;;;;;3.53;2.67;;;16.80;99.90;;;;;;4992051;28;20030;-82
2023/07/30 04:40:24;;;;;;;3.50;2.33;;;16.90;99.90;;;;;;4994681;28;20037;-84
2023/07/30 04:42:50;;;;;;;5.25;2.60;;;16.90;99.90;;;;;;4995580;28;20104;-85
2023/07/30 04:45:15;;;;;;;5.90;2.60;;;16.90;99.90;;;;;;4995011;28;20030;-84
2023/07/30 04:47:41;;;;;;;3.70;2.28;;;17.00;99.90;;;;;;4991052;28;20033;-77
2023/07/30 04:50:07;;;;;;;4.45;2.35;;;17.10;99.90;;;;;;4986506;28;20034;-77
2023/07/30 04:52:32;;;;;;;4.15;2.38;;;17.10;99.90;;;;;;4988096;28;20101;-76
2023/07/30 04:54:58;;;;;;;4.53;2.40;;;17.20;99.90;;;;;;4987927;28;20393;-77
2023/07/30 04:57:23;;;;;;;5.18;2.50;;;17.20;99.90;;;;;;4987278;28;20100;-75
2023/07/30 04:59:49;;;;;;;4.15;2.40;;;17.20;99.90;;;;;;4988927;28;20027;-77
2023/07/30 05:02:14;;;;;;;4.45;2.30;;;17.30;99.90;;;;;;4988210;28;20030;-77
2023/07/30 05:04:40;;;;;;;7.70;2.60;;;17.30;99.90;;;;;;4987689;28;20030;-77
2023/07/30 05:07:06;;;;;;;3.25;2.50;;;17.40;99.90;;;;;;4987990;28;20042;-76
2023/07/30 05:09:31;;;;;;;3.47;2.25;;;17.50;99.90;;;;;;4988601;28;20026;-78
2023/07/30 05:11:57;;;;;;;4.10;2.47;;;17.50;99.90;;;;;;4987784;28;20064;-77
2023/07/30 05:14:22;;;;;;;3.80;2.28;;;17.50;99.90;;;;;;4987665;28;20030;-77
2023/07/30 05:16:48;;;;;;;3.55;2.25;;;17.50;99.90;;;;;;4988960;28;20026;-78
2023/07/30 05:19:13;;;;;;;5.47;2.50;;;17.50;99.90;;;;;;4988772;28;20021;-77
2023/07/30 05:21:39;;;;;;;3.58;2.40;;;17.40;99.90;;;;;;4980081;28;20038;-78
2023/07/30 05:24:05;;;;;;;3.45;2.10;;;17.50;99.90;;;;;;4980872;28;20153;-78
2023/07/30 05:26:30;;;;;;;3.25;2.38;;;17.50;99.90;;;;;;4985911;28;20535;-78
2023/07/30 05:28:56;;;;;;;4.90;2.50;;;17.50;99.90;;;;;;4984865;28;21381;-78
2023/07/30 05:31:21;;;;;;;3.28;2.40;;;17.60;99.90;;;;;;4984785;28;20054;-78
2023/07/30 05:33:47;;;;;;;3.33;2.42;;;17.60;99.90;;;;;;4983645;28;20167;-77
2023/07/30 05:36:12;;;;;;;2.92;2.45;;;17.70;99.90;;;;;;4985210;28;20178;-78
2023/07/30 05:38:38;;;;;;;4.65;2.50;;;17.70;99.90;;;;;;4985653;28;20034;-78
2023/07/30 05:41:03;;;;;;;3.22;2.38;;;17.70;99.90;;;;;;4988786;28;20496;-78
2023/07/30 05:43:29;;;;;;;3.33;2.47;;;17.80;99.90;;;;;;4985781;28;20484;-78
2023/07/30 05:45:54;;;;;;;5.28;2.50;;;17.80;99.90;;;;;;4987022;28;20540;-79
2023/07/30 05:48:20;;;;;;;3.00;2.30;;;17.90;99.90;;;;;;4981354;28;20037;-79
2023/07/30 05:50:45;;;;;;;2.90;2.25;;;18.00;99.90;;;;;;4983751;28;20026;-80
2023/07/30 05:53:11;;;;;;;4.22;2.10;;;18.10;99.90;;;;;;4986979;28;20030;-80
2023/07/30 05:55:36;;;;;;;2.80;1.83;;;18.20;99.90;;;;;;4988314;28;20508;-79
2023/07/30 05:58:02;;;;;;;4.82;2.65;;;18.40;99.90;;;;;;4983868;28;20036;-79
2023/07/30 06:00:27;;;;;;;3.80;2.53;;;18.50;99.90;;;;;;4986000;28;20041;-79
2023/07/30 06:02:53;;;;;;;3.70;2.20;;;18.50;99.90;;;;;;4988192;28;20394;-79
2023/07/30 06:05:18;;;;;;;2.85;2.03;;;18.60;99.90;;;;;;4987521;28;20030;-79
2023/07/30 06:07:45;;;;;;;4.28;2.17;;;18.70;99.90;;;;;;4985969;28;21352;-79
2023/07/30 06:10:10;;;;;;;3.97;2.20;;;18.80;99.90;;;;;;4988015;28;20152;-79
2023/07/30 06:12:36;;;;;;;5.55;2.10;;;19.00;99.90;;;;;;4988575;28;20109;-79
2023/07/30 06:15:01;;;;;;;3.55;2.25;;;19.00;99.90;;;;;;4985777;28;20046;-79
2023/07/30 06:17:27;;;;;;;6.18;2.35;;;19.20;99.90;;;;;;4986971;28;20084;-79
2023/07/30 06:19:53;;;;;;;4.88;2.00;;;19.30;99.90;;;;;;4987460;28;20032;-79
2023/07/30 06:22:18;;;;;;;3.03;2.20;;;19.40;99.90;;;;;;4987389;28;20038;-79
2023/07/30 06:24:44;;;;;;;3.13;2.28;;;19.50;99.90;;;;;;4985548;28;20053;-80
2023/07/30 06:27:09;;;;;;;3.08;2.22;;;19.60;99.90;;;;;;4987474;28;20034;-79
2023/07/30 06:29:35;;;;;;;5.45;2.15;;;19.70;99.90;;;;;;4985295;28;20034;-79
2023/07/30 06:32:01;;;;;;;3.05;2.22;;;19.80;99.90;;;;;;4985133;28;20548;-79
2023/07/30 06:34:27;;;;;;;8.35;1.98;;;19.90;99.90;;;;;;4985865;28;20038;-79
2023/07/30 06:36:52;;;;;;;3.65;2.33;;;20.00;99.90;;;;;;4985194;28;20149;-80
2023/07/30 06:39:18;;;;;;;3.60;1.90;;;20.10;99.90;;;;;;4986349;28;20060;-78
2023/07/30 06:41:43;;;;;;;5.57;1.92;;;20.10;99.90;;;;;;4984348;28;20037;-77
2023/07/30 06:44:09;;;;;;;3.65;2.30;;;20.20;99.90;;;;;;4982482;28;20029;-77
2023/07/30 06:46:34;;;;;;;5.97;2.00;;;20.30;99.90;;;;;;4985162;28;20030;-78
2023/07/30 06:49:00;;;;;;;2.13;1.70;;;20.30;99.90;;;;;;4985492;28;20038;-79
2023/07/30 06:51:26;;;;;;;4.05;2.00;;;20.50;99.90;;;;;;4985611;28;20054;-78
2023/07/30 06:53:52;;;;;;;4.95;2.00;;;20.50;99.90;;;;;;4986238;28;20046;-79
2023/07/30 06:56:18;;;;;;;3.53;1.75;;;20.50;99.90;;;;;;4985598;28;20026;-78
2023/07/30 06:58:43;;;;;;;2.60;1.85;;;20.60;99.90;;;;;;4986853;28;20038;-78
2023/07/30 07:01:09;;;;;;;4.03;2.20;;;20.70;99.90;;;;;;4983317;28;20038;-78
2023/07/30 07:03:34;;;;;;;4.88;2.00;;;20.80;99.90;;;;;;4984645;28;20504;-77
2023/07/30 07:06:00;;;;;;;3.15;1.90;;;20.80;99.90;;;;;;4982670;28;20030;-78
2023/07/30 07:08:27;;;;;;;6.72;1.90;;;20.70;99.90;;;;;;4980445;28;20133;-78
2023/07/30 07:10:52;;;;;;;7.20;1.92;;;20.70;99.90;;;;;;4982473;28;20031;-78
2023/07/30 07:13:18;;;;;;;3.42;2.00;;;20.70;99.90;;;;;;4983445;28;20897;-77
2023/07/30 07:15:44;;;;;;;5.03;1.90;;;20.80;99.90;;;;;;4983062;28;20418;-77
2023/07/30 07:18:10;;;;;;;2.85;1.83;;;20.90;99.90;;;;;;4985254;28;20026;-77
2023/07/30 07:20:37;;;;;;;5.95;2.08;;;20.90;99.90;;;;;;4984539;28;20386;-77
2023/07/30 07:23:03;;;;;;;4.70;2.25;;;21.10;99.90;;;;;;4983853;28;21411;-77
2023/07/30 07:25:29;;;;;;;2.60;1.90;;;21.10;99.90;;;;;;4983645;28;20062;-77
2023/07/30 07:27:54;;;;;;;4.65;2.13;;;21.20;99.90;;;;;;4982441;28;20041;-78
2023/07/30 07:30:20;;;;;;;4.43;1.98;;;21.20;99.90;;;;;;4988654;28;20038;-76
2023/07/30 07:32:50;;;;;;;4.10;1.90;;;21.40;99.90;;;;;;4987786;28;20029;-77
2023/07/30 07:35:15;;;;;;;3.45;1.70;;;21.40;99.90;;;;;;4988923;28;20030;-78
2023/07/30 07:37:41;;;;;;;2.83;1.70;;;21.40;99.90;;;;;;4986527;28;20503;-78
2023/07/30 07:40:09;;;;;;;2.63;1.88;;;21.40;99.90;;;;;;4988017;28;20023;-79
2023/07/30 07:42:34;;;;;;;2.92;1.75;;;21.40;99.90;;;;;;4987484;28;20035;-78
2023/07/30 07:45:00;;;;;;;3.55;1.70;;;21.50;99.90;;;;;;4985336;28;20049;-77
2023/07/30 07:47:25;;;;;;;4.28;2.17;;;21.50;99.90;;;;;;4987553;28;20030;-76
2023/07/30 07:49:51;;;;;;;3.03;1.80;;;21.50;99.90;;;;;;4987292;28;20026;-85
2023/07/30 07:52:17;;;;;;;3.53;1.80;;;21.60;99.90;;;;;;4987200;28;20038;-87
2023/07/30 07:54:43;;;;;;;2.60;2.10;;;21.50;99.90;;;;;;4991955;28;20113;-82
2023/07/30 07:57:08;;;;;;;4.78;1.98;;;21.60;99.90;;;;;;4990860;28;20033;-82
2023/07/30 07:59:34;;;;;;;3.70;2.25;;;21.70;99.90;;;;;;4992443;28;20018;-83
2023/07/30 08:01:59;;;;;;;2.03;1.65;;;21.70;99.90;;;;;;4994703;28;20057;-83
2023/07/30 08:04:25;;;;;;;4.20;1.80;;;21.80;99.90;;;;;;4993582;28;20026;-83
2023/07/30 08:06:51;;;;;;;2.22;1.60;;;21.80;99.90;;;;;;4991520;28;20026;-83
2023/07/30 08:09:16;;;;;;;2.33;1.80;;;21.90;99.90;;;;;;4992140;28;20033;-83
2023/07/30 08:11:42;;;;;;;4.25;1.67;;;21.90;99.90;;;;;;4991983;28;20080;-83
2023/07/30 08:14:07;;;;;;;11.02;2.40;;;22.00;99.90;;;;;;4994847;28;20037;-83
2023/07/30 08:16:33;;;;;;;4.38;1.85;;;22.00;99.90;;;;;;4991833;28;20017;-83
2023/07/30 08:18:58;;;;;;;2.90;1.92;;;22.00;99.90;;;;;;4992958;28;20030;-83
2023/07/30 08:21:24;;;;;;;2.72;2.08;;;21.80;99.90;;;;;;4992899;28;20607;-82
2023/07/30 08:23:49;;;;;;;4.28;1.67;;;21.80;99.90;;;;;;4993097;28;20053;-83
2023/07/30 08:26:15;;;;;;;2.92;2.00;;;21.70;99.90;;;;;;4992478;28;21497;-83
2023/07/30 08:28:40;;;;;;;2.50;1.73;;;21.70;99.90;;;;;;4993948;28;20071;-83
2023/07/30 08:31:06;;;;;;;1.95;1.60;;;21.80;99.90;;;;;;4991955;28;20022;-83
2023/07/30 08:33:32;;;;;;;6.32;3.00;;;21.80;99.90;;;;;;4989870;28;20019;-83
2023/07/30 08:35:58;;;;;;;3.15;1.60;;;22.00;99.90;;;;;;4991486;28;20394;-83
2023/07/30 08:38:24;;;;;;;3.47;1.90;;;22.20;99.90;;;;;;4991037;28;20038;-83
2023/07/30 08:40:50;;;;;;;2.38;1.85;;;22.30;99.90;;;;;;4990588;28;20061;-83
2023/07/30 08:43:16;;;;;;;3.90;1.80;;;22.40;99.90;;;;;;4992592;28;20026;-82
2023/07/30 08:45:41;;;;;;;2.28;1.50;;;22.50;99.90;;;;;;4992757;28;20088;-83
2023/07/30 08:48:07;;;;;;;3.40;1.90;;;22.60;99.90;;;;;;4990934;28;20041;-83
2023/07/30 08:50:34;;;;;;;4.75;2.30;;;22.70;99.90;;;;;;4989940;28;20050;-83
2023/07/30 08:53:02;;;;;;;3.72;1.77;;;22.80;99.90;;;;;;4989794;28;20026;-83
2023/07/30 08:55:29;;;;;;;2.50;1.67;;;23.00;99.90;;;;;;4989612;28;20023;-82
2023/07/30 08:57:56;;;;;;;2.60;1.60;;;23.10;99.90;;;;;;4991029;28;20050;-83
2023/07/30 09:00:24;;;;;;;5.00;2.13;;;23.00;99.90;;;;;;4992418;28;21140;-83
2023/07/30 09:02:54;;;;;;;2.70;1.88;;;23.00;99.90;;;;;;4992493;28;20030;-83
2023/07/30 09:05:20;;;;;;;4.75;1.80;;;23.10;99.90;;;;;;4989355;28;20026;-83
2023/07/30 09:07:46;;;;;;;2.28;1.65;;;23.00;99.90;;;;;;4992076;28;21066;-83
2023/07/30 09:10:12;;;;;;;3.03;1.90;;;22.90;99.90;;;;;;4990462;28;20081;-83
2023/07/30 09:12:38;;;;;;;2.58;1.60;;;22.90;99.90;;;;;;4991553;28;20089;-83
2023/07/30 09:15:05;;;;;;;3.03;1.75;;;22.90;99.90;;;;;;4989978;28;20113;-83
2023/07/30 09:17:30;;;;;;;3.38;2.00;;;23.00;99.90;;;;;;4989068;28;20031;-83
2023/07/30 09:19:58;;;;;;;2.22;1.88;;;23.10;99.90;;;;;;4990235;28;20036;-84
2023/07/30 09:22:28;;;;;;;2.85;1.80;;;23.20;99.90;;;;;;4988540;28;20117;-82
2023/07/30 09:24:55;;;;;;;5.10;1.60;;;23.30;99.90;;;;;;4988678;28;20041;-84
2023/07/30 09:27:23;;;;;;;2.95;1.83;;;23.50;99.90;;;;;;4987335;28;20809;-82
2023/07/30 09:30:05;;;;;;;2.42;1.80;;;23.70;99.90;;;;;;4990492;28;20120;-83
2023/07/30 09:32:32;;;;;;;2.92;2.00;;;23.80;99.90;;;;;;4989309;28;20063;-83
2023/07/30 09:35:06;;;;;;;2.08;1.60;;;23.90;99.90;;;;;;4989477;28;20515;-83
2023/07/30 09:37:35;;;;;;;2.45;1.58;;;24.10;99.90;;;;;;4988153;28;20049;-83
2023/07/30 09:40:02;;;;;;;3.08;1.85;;;24.50;99.90;;;;;;4992408;28;20050;-83
2023/07/30 09:42:28;;;;;;;3.55;1.50;;;24.70;99.90;;;;;;4991127;28;20023;-83
2023/07/30 09:44:53;;;;;;;3.42;1.80;;;24.80;99.90;;;;;;4991561;28;20030;-84
2023/07/30 09:47:19;;;;;;;3.30;1.70;;;25.10;99.90;;;;;;4987753;28;20026;-83
2023/07/30 09:49:44;;;;;;;2.45;1.60;;;25.20;99.90;;;;;;4990740;28;20508;-82
2023/07/30 09:52:11;;;;;;;2.20;1.67;;;25.20;99.90;;;;;;4991149;28;20026;-83
2023/07/30 09:54:39;;;;;;;3.63;1.60;;;25.20;99.90;;;;;;4992296;28;20484;-83
2023/07/30 09:57:05;;;;;;;2.33;1.55;;;25.40;99.90;;;;;;4991893;28;20081;-83
2023/07/30 09:59:30;;;;;;;2.22;1.50;;;25.50;99.90;;;;;;4991969;28;20026;-83
2023/07/30 10:01:58;;;;;;;2.30;1.58;;;25.50;99.90;;;;;;4992445;28;20033;-83
2023/07/30 10:04:24;;;;;;;4.57;1.80;;;25.50;99.90;;;;;;4993311;28;20060;-83
2023/07/30 10:06:53;;;;;;;3.80;1.38;;;25.40;99.90;;;;;;4991253;28;20033;-83
2023/07/30 10:09:21;;;;;;;2.55;1.50;;;25.30;99.90;;;;;;4991521;28;20113;-83
2023/07/30 10:11:49;;;;;;;2.20;1.50;;;25.10;99.90;;;;;;4992336;28;20030;-84
2023/07/30 10:14:19;;;;;;;2.28;1.70;;;24.80;99.90;;;;;;4992613;28;20049;-83
2023/07/30 10:16:53;;;;;;;1.80;1.50;;;24.60;99.90;;;;;;4990766;28;20029;-83
2023/07/30 10:19:23;;;;;;;2.35;1.75;;;24.60;99.90;;;;;;4992184;28;20034;-83
2023/07/30 10:21:49;;;;;;;2.70;1.55;;;24.70;99.90;;;;;;4993267;28;20134;-83
2023/07/30 10:24:14;;;;;;;2.55;1.50;;;24.70;99.90;;;;;;4993546;28;20098;-82
2023/07/30 10:26:40;;;;;;;2.90;1.55;;;24.60;99.90;;;;;;4992028;28;20048;-83
2023/07/30 10:29:13;;;;;;;3.08;1.40;;;24.50;99.90;;;;;;4992741;28;20038;-83
2023/07/30 10:31:40;;;;;;;2.22;1.60;;;24.50;99.90;;;;;;4992329;28;20101;-83
2023/07/30 10:34:10;;;;;;;3.35;1.60;;;24.50;99.90;;;;;;4991964;28;20067;-83
2023/07/30 10:36:44;;;;;;;3.17;1.92;;;24.50;99.90;;;;;;4990192;28;20160;-83
2023/07/30 10:39:16;;;;;;;3.15;1.92;;;24.40;99.90;;;;;;4990699;28;20153;-83
2023/07/30 10:41:44;;;;;;;3.42;1.73;;;24.40;99.90;;;;;;4992916;28;20030;-82
2023/07/30 10:44:18;;;;;;;2.15;1.20;;;24.40;99.90;;;;;;4993228;28;20149;-83
2023/07/30 10:46:44;;;;;;;5.10;1.65;;;24.40;99.90;;;;;;4990486;28;20541;-83
2023/07/30 10:49:11;;;;;;;2.40;1.70;;;24.40;99.90;;;;;;4990870;28;20165;-83
2023/07/30 10:51:37;;;;;;;2.00;1.60;;;24.40;99.90;;;;;;4991270;28;20030;-83
2023/07/30 10:54:07;;;;;;;2.53;1.67;;;24.40;99.90;;;;;;4987790;28;20693;-75
2023/07/30 10:56:36;;;;;;;2.25;1.50;;;24.50;99.90;;;;;;4985980;28;20080;-78
2023/07/30 10:59:05;;;;;;;2.70;1.60;;;24.70;99.90;;;;;;4986886;28;20048;-77
2023/07/30 11:01:30;;;;;;;4.00;1.75;;;24.90;99.90;;;;;;4984701;28;20022;-77
2023/07/30 11:03:56;;;;;;;2.85;1.42;;;25.30;99.90;;;;;;4984618;28;20037;-76
2023/07/30 11:06:26;;;;;;;3.67;1.60;;;25.60;99.90;;;;;;4985245;28;20065;-77
2023/07/30 11:08:52;;;;;;;2.80;1.50;;;25.80;99.90;;;;;;4986504;28;20085;-77
2023/07/30 11:11:18;;;;;;;10.75;1.88;;;26.00;99.90;;;;;;4985288;28;20048;-80
2023/07/30 11:13:46;;;;;;;2.03;1.50;;;26.10;99.90;;;;;;4986796;28;20825;-78
2023/07/30 11:16:12;;;;;;;4.03;1.80;;;25.90;99.90;;;;;;4985637;28;20049;-78
2023/07/30 11:18:39;;;;;;;1.45;1.25;;;25.70;99.90;;;;;;4986280;28;20556;-78
2023/07/30 11:21:10;;;;;;;2.05;1.33;;;25.70;99.90;;;;;;4986312;28;20037;-78
2023/07/30 11:23:38;;;;;;;2.08;1.30;;;26.00;99.90;;;;;;4985670;28;20030;-78
2023/07/30 11:26:05;;;;;;;2.50;1.40;;;26.40;99.90;;;;;;4986402;28;20148;-78
2023/07/30 11:28:36;;;;;;;2.30;1.20;;;26.60;99.90;;;;;;4984193;28;20571;-78
2023/07/30 11:31:03;;;;;;;2.00;1.50;;;26.70;99.90;;;;;;4985970;28;20121;-78
2023/07/30 11:33:29;;;;;;;4.38;1.70;;;26.80;99.90;;;;;;4985546;28;20058;-76
2023/07/30 11:35:56;;;;;;;6.30;1.60;;;26.40;99.90;;;;;;4986091;28;20030;-77
2023/07/30 11:38:24;;;;;;;4.75;1.83;;;25.50;99.90;;;;;;4984927;28;20045;-78
2023/07/30 11:40:51;;;;;;;2.55;1.50;;;24.80;99.90;;;;;;4985454;28;20041;-77
2023/07/30 11:43:16;;;;;;;2.42;1.60;;;24.30;99.90;;;;;;4985281;28;20441;-77
2023/07/30 11:45:42;;;;;;;4.10;1.48;;;24.10;99.90;;;;;;4986231;28;20122;-77
2023/07/30 11:48:09;;;;;;;2.20;1.48;;;23.90;99.90;;;;;;4984277;28;20034;-77
2023/07/30 11:50:49;;;;;;;3.78;2.00;;;23.70;99.90;;;;;;4984975;28;20397;-77
2023/07/30 11:53:15;;;;;;;2.50;1.80;;;23.60;99.90;;;;;;4985588;28;20054;-77
2023/07/30 11:55:42;;;;;;;2.42;1.50;;;23.40;99.90;;;;;;4985305;28;20105;-78
2023/07/30 11:58:09;;;;;;;2.67;1.58;;;23.40;99.90;;;;;;4983495;28;20026;-77
2023/07/30 12:00:37;;;;;;;3.72;1.73;;;23.50;99.90;;;;;;4985448;28;20033;-77
2023/07/30 12:03:04;;;;;;;2.40;1.60;;;23.70;99.90;;;;;;4985544;28;20188;-77
2023/07/30 12:05:37;;;;;;;2.95;1.88;;;24.30;99.90;;;;;;4985278;28;20062;-78
2023/07/30 12:08:06;;;;;;;2.35;1.50;;;24.70;99.90;;;;;;4984304;28;20031;-77
2023/07/30 12:10:49;;;;;;;4.05;1.70;;;24.90;99.90;;;;;;4985963;28;20034;-77
2023/07/30 12:13:19;;;;;;;2.92;1.83;;;25.30;99.90;;;;;;4985881;28;20034;-78
2023/07/30 12:15:51;;;;;;;3.35;1.58;;;25.60;99.90;;;;;;4988910;28;20029;-77
2023/07/30 12:18:16;;;;;;;4.85;1.85;;;25.70;99.90;;;;;;4988948;28;20075;-77
2023/07/30 12:20:42;;;;;;;3.78;1.70;;;25.90;99.90;;;;;;4988212;28;20445;-78
2023/07/30 12:23:07;;;;;;;3.25;1.70;;;26.00;99.90;;;;;;4988363;28;20165;-77
2023/07/30 12:25:34;;;;;;;3.80;1.70;;;25.90;99.90;;;;;;4988757;28;20026;-77
2023/07/30 12:28:00;;;;;;;2.08;1.60;;;25.70;99.90;;;;;;4988262;28;20437;-79
2023/07/30 12:30:26;;;;;;;2.30;1.80;;;25.50;99.90;;;;;;4988653;28;20106;-77
2023/07/30 12:32:52;;;;;;;2.33;1.70;;;25.50;99.90;;;;;;4982716;28;20030;-77
2023/07/30 12:35:17;;;;;;;5.05;1.77;;;25.80;99.90;;;;;;4985033;28;20120;-77
2023/07/30 12:37:43;;;;;;;2.65;1.65;;;26.10;99.90;;;;;;4984359;28;20054;-78
2023/07/30 12:40:09;;;;;;;2.63;1.80;;;26.40;99.90;;;;;;4984813;28;20022;-77